sensor_id;sensor_type;location;lat;lon;timestamp;pressure;altitude;pressure_sealevel;temperature;humidity
38227;BME280;24026;49.446;8.576;2023-04-01T00:01:05;99024.59;;;15.16;52.69
38227;BME280;24026;49.446;8.576;2023-04-01T00:03:26;99029.94;;;15.16;52.58
38227;BME280;24026;49.446;8.576;2023-04-01T00:05:47;99020.00;;;15.16;52.58
38227;BME280;24026;49.446;8.576;2023-04-01T00:08:07;99027.25;;;15.16;52.67
38227;BME280;24026;49.446;8.576;2023-04-01T00:10:28;99028.16;;;15.11;52.77
38227;BME280;24026;49.446;8.576;2023-04-01T00:12:48;99013.69;;;15.12;52.59
38227;BME280;24026;49.446;8.576;2023-04-01T00:15:11;99017.63;;;15.15;52.61
38227;BME280;24026;49.446;8.576;2023-04-01T00:17:31;99014.00;;;15.11;52.66
38227;BME280;24026;49.446;8.576;2023-04-01T00:19:54;99011.81;;;15.13;52.65
38227;BME280;24026;49.446;8.576;2023-04-01T00:22:15;99016.06;;;15.14;52.21
38227;BME280;24026;49.446;8.576;2023-04-01T00:24:37;99020.63;;;15.13;52.49
38227;BME280;24026;49.446;8.576;2023-04-01T00:26:58;99015.25;;;15.13;52.58
38227;BME280;24026;49.446;8.576;2023-04-01T00:29:18;99003.00;;;15.12;52.40
38227;BME280;24026;49.446;8.576;2023-04-01T00:31:39;99010.72;;;15.14;52.20
38227;BME280;24026;49.446;8.576;2023-04-01T00:33:59;99007.56;;;15.12;52.40
38227;BME280;24026;49.446;8.576;2023-04-01T00:36:21;99010.84;;;15.09;52.54
38227;BME280;24026;49.446;8.576;2023-04-01T00:38:42;99007.06;;;15.10;52.43
38227;BME280;24026;49.446;8.576;2023-04-01T00:41:03;99012.91;;;15.12;52.34
38227;BME280;24026;49.446;8.576;2023-04-01T00:43:24;99014.31;;;15.09;52.45
38227;BME280;24026;49.446;8.576;2023-04-01T00:45:46;99016.97;;;15.09;52.46
38227;BME280;24026;49.446;8.576;2023-04-01T00:48:11;99013.53;;;15.09;52.48
38227;BME280;24026;49.446;8.576;2023-04-01T00:50:34;99021.25;;;15.10;52.35
38227;BME280;24026;49.446;8.576;2023-04-01T00:52:55;99019.47;;;15.06;52.33
38227;BME280;24026;49.446;8.576;2023-04-01T00:55:16;99015.38;;;15.08;52.25
38227;BME280;24026;49.446;8.576;2023-04-01T00:57:39;99013.81;;;15.07;52.36
38227;BME280;24026;49.446;8.576;2023-04-01T01:00:05;99003.91;;;15.08;52.25
38227;BME280;24026;49.446;8.576;2023-04-01T01:02:27;99011.94;;;15.08;52.19
38227;BME280;24026;49.446;8.576;2023-04-01T01:04:47;99006.09;;;15.06;52.28
38227;BME280;24026;49.446;8.576;2023-04-01T01:12:27;99001.78;;;14.96;52.30
38227;BME280;24026;49.446;8.576;2023-04-01T01:20:26;98996.13;;;14.97;52.12
38227;BME280;24026;49.446;8.576;2023-04-01T01:29:04;98980.06;;;14.97;51.95
38227;BME280;24026;49.446;8.576;2023-04-01T01:32:38;98999.59;;;14.98;51.95
38227;BME280;24026;49.446;8.576;2023-04-01T01:36:55;98984.66;;;14.97;52.05
38227;BME280;24026;49.446;8.576;2023-04-01T01:39:17;98982.88;;;14.92;52.09
38227;BME280;24026;49.446;8.576;2023-04-01T01:41:39;98984.13;;;14.95;52.06
38227;BME280;24026;49.446;8.576;2023-04-01T01:44:03;98981.47;;;14.95;51.96
38227;BME280;24026;49.446;8.576;2023-04-01T01:46:26;98980.69;;;14.94;52.00
38227;BME280;24026;49.446;8.576;2023-04-01T01:48:49;98986.81;;;14.95;52.06
38227;BME280;24026;49.446;8.576;2023-04-01T01:51:11;98969.84;;;14.99;52.10
38227;BME280;24026;49.446;8.576;2023-04-01T01:53:31;98974.44;;;14.99;52.16
38227;BME280;24026;49.446;8.576;2023-04-01T01:55:52;98972.66;;;14.94;51.89
38227;BME280;24026;49.446;8.576;2023-04-01T02:00:46;98970.75;;;14.95;51.69
38227;BME280;24026;49.446;8.576;2023-04-01T02:03:08;98975.81;;;14.96;51.75
38227;BME280;24026;49.446;8.576;2023-04-01T02:05:29;98968.59;;;14.97;51.54
38227;BME280;24026;49.446;8.576;2023-04-01T02:08:04;98973.94;;;14.97;51.58
38227;BME280;24026;49.446;8.576;2023-04-01T02:10:28;98967.78;;;14.96;51.57
38227;BME280;24026;49.446;8.576;2023-04-01T02:12:50;98970.47;;;14.96;51.53
38227;BME280;24026;49.446;8.576;2023-04-01T02:15:15;98964.63;;;14.94;51.59
38227;BME280;24026;49.446;8.576;2023-04-01T02:17:40;98974.56;;;14.94;51.55
38227;BME280;24026;49.446;8.576;2023-04-01T02:20:07;98968.72;;;14.92;51.62
38227;BME280;24026;49.446;8.576;2023-04-01T02:22:31;98968.38;;;14.93;51.40
38227;BME280;24026;49.446;8.576;2023-04-01T02:24:57;98969.81;;;14.91;51.57
38227;BME280;24026;49.446;8.576;2023-04-01T02:27:19;98964.16;;;14.92;51.55
38227;BME280;24026;49.446;8.576;2023-04-01T02:29:40;98972.19;;;14.92;51.53
38227;BME280;24026;49.446;8.576;2023-04-01T02:32:00;98969.19;;;14.94;51.48
38227;BME280;24026;49.446;8.576;2023-04-01T02:34:23;98981.28;;;14.91;51.56
38227;BME280;24026;49.446;8.576;2023-04-01T02:36:44;98969.19;;;14.94;51.50
38227;BME280;24026;49.446;8.576;2023-04-01T02:39:05;98970.75;;;14.95;51.18
38227;BME280;24026;49.446;8.576;2023-04-01T02:41:25;98972.19;;;14.92;51.23
38227;BME280;24026;49.446;8.576;2023-04-01T02:43:46;98973.75;;;14.93;51.34
38227;BME280;24026;49.446;8.576;2023-04-01T02:46:06;98969.19;;;14.94;51.35
38227;BME280;24026;49.446;8.576;2023-04-01T02:48:27;98969.03;;;14.90;51.46
38227;BME280;24026;49.446;8.576;2023-04-01T02:50:48;98982.41;;;14.90;51.37
38227;BME280;24026;49.446;8.576;2023-04-01T02:53:08;98976.75;;;14.92;51.62
38227;BME280;24026;49.446;8.576;2023-04-01T02:55:29;98972.19;;;14.92;51.28
38227;BME280;24026;49.446;8.576;2023-04-01T02:57:50;98973.75;;;14.93;51.31
38227;BME280;24026;49.446;8.576;2023-04-01T03:00:11;98981.28;;;14.91;51.32
38227;BME280;24026;49.446;8.576;2023-04-01T03:02:31;98978.13;;;14.89;51.25
38227;BME280;24026;49.446;8.576;2023-04-01T03:04:52;98972.59;;;14.86;51.32
38227;BME280;24026;49.446;8.576;2023-04-01T03:07:12;98980.81;;;14.89;51.32
38227;BME280;24026;49.446;8.576;2023-04-01T03:09:33;98977.94;;;14.86;51.22
38227;BME280;24026;49.446;8.576;2023-04-01T03:11:54;98972.31;;;14.87;51.33
38227;BME280;24026;49.446;8.576;2023-04-01T03:14:14;98977.34;;;14.89;51.25
38227;BME280;24026;49.446;8.576;2023-04-01T03:16:34;98977.16;;;14.85;51.30
38227;BME280;24026;49.446;8.576;2023-04-01T03:18:55;98978.25;;;14.84;51.52
38227;BME280;24026;49.446;8.576;2023-04-01T03:21:21;98979.03;;;14.85;51.38
38227;BME280;24026;49.446;8.576;2023-04-01T03:23:41;98984.69;;;14.83;51.40
38227;BME280;24026;49.446;8.576;2023-04-01T03:26:02;98976.66;;;14.83;51.29
38227;BME280;24026;49.446;8.576;2023-04-01T03:28:22;98983.13;;;14.82;51.37
38227;BME280;24026;49.446;8.576;2023-04-01T03:30:43;98980.94;;;14.84;51.39
38227;BME280;24026;49.446;8.576;2023-04-01T03:33:03;98981.22;;;14.82;51.21
38227;BME280;24026;49.446;8.576;2023-04-01T03:35:23;98979.34;;;14.83;51.46
38227;BME280;24026;49.446;8.576;2023-04-01T03:37:44;98978.56;;;14.82;51.28
38227;BME280;24026;49.446;8.576;2023-04-01T03:40:05;98979.34;;;14.83;51.37
38227;BME280;24026;49.446;8.576;2023-04-01T03:42:25;98982.81;;;14.84;51.34
38227;BME280;24026;49.446;8.576;2023-04-01T03:44:46;98983.91;;;14.82;51.52
38227;BME280;24026;49.446;8.576;2023-04-01T03:47:06;98986.56;;;14.82;51.39
38227;BME280;24026;49.446;8.576;2023-04-01T03:49:29;98979.34;;;14.83;51.38
38227;BME280;24026;49.446;8.576;2023-04-01T03:51:49;98983.72;;;14.79;51.47
38227;BME280;24026;49.446;8.576;2023-04-01T03:54:10;98984.22;;;14.81;51.30
38227;BME280;24026;49.446;8.576;2023-04-01T03:56:31;98993.00;;;14.81;51.32
38227;BME280;24026;49.446;8.576;2023-04-01T03:58:52;98989.25;;;14.82;51.53
38227;BME280;24026;49.446;8.576;2023-04-01T04:01:19;98983.41;;;14.80;51.49
38227;BME280;24026;49.446;8.576;2023-04-01T04:03:43;98988.78;;;14.80;51.45
38227;BME280;24026;49.446;8.576;2023-04-01T04:06:04;98983.25;;;14.77;51.50
38227;BME280;24026;49.446;8.576;2023-04-01T04:08:24;98979.94;;;14.80;51.40
38227;BME280;24026;49.446;8.576;2023-04-01T04:10:45;98974.91;;;14.78;51.39
38227;BME280;24026;49.446;8.576;2023-04-01T04:13:06;98973.03;;;14.79;51.33
38227;BME280;24026;49.446;8.576;2023-04-01T04:15:27;98979.47;;;14.78;51.43
38227;BME280;24026;49.446;8.576;2023-04-01T04:17:47;98980.25;;;14.78;51.23
38227;BME280;24026;49.446;8.576;2023-04-01T04:20:08;98984.50;;;14.79;51.27
38227;BME280;24026;49.446;8.576;2023-04-01T04:22:29;98979.63;;;14.81;51.22
38227;BME280;24026;49.446;8.576;2023-04-01T04:24:49;98977.25;;;14.80;51.20
38227;BME280;24026;49.446;8.576;2023-04-01T04:27:10;98976.47;;;14.79;51.13
38227;BME280;24026;49.446;8.576;2023-04-01T04:29:30;98983.53;;;14.75;51.25
38227;BME280;24026;49.446;8.576;2023-04-01T04:31:50;98973.03;;;14.79;51.25
38227;BME280;24026;49.446;8.576;2023-04-01T04:34:11;98971.44;;;14.78;51.16
38227;BME280;24026;49.446;8.576;2023-04-01T04:36:31;98971.91;;;14.80;51.27
38227;BME280;24026;49.446;8.576;2023-04-01T04:38:52;98974.41;;;14.76;51.33
38227;BME280;24026;49.446;8.576;2023-04-01T04:41:13;98973.94;;;14.74;51.23
38227;BME280;24026;49.446;8.576;2023-04-01T04:43:34;98965.13;;;14.74;51.27
38227;BME280;24026;49.446;8.576;2023-04-01T04:45:54;98973.16;;;14.74;51.28
38227;BME280;24026;49.446;8.576;2023-04-01T04:48:15;98975.81;;;14.74;51.31
38227;BME280;24026;49.446;8.576;2023-04-01T04:50:40;98971.84;;;14.71;51.30
38227;BME280;24026;49.446;8.576;2023-04-01T04:53:01;98971.84;;;14.71;51.05
38227;BME280;24026;49.446;8.576;2023-04-01T04:55:21;98985.22;;;14.71;51.31
38227;BME280;24026;49.446;8.576;2023-04-01T04:57:42;98978.50;;;14.74;51.34
38227;BME280;24026;49.446;8.576;2023-04-01T05:00:03;98980.34;;;14.73;51.32
38227;BME280;24026;49.446;8.576;2023-04-01T05:02:23;98975.00;;;14.73;51.35
38227;BME280;24026;49.446;8.576;2023-04-01T05:04:44;98973.94;;;14.74;51.22
38227;BME280;24026;49.446;8.576;2023-04-01T05:07:04;98985.41;;;14.75;51.30
38227;BME280;24026;49.446;8.576;2023-04-01T05:09:25;98980.19;;;14.70;51.48
38227;BME280;24026;49.446;8.576;2023-04-01T05:11:45;98984.94;;;14.73;51.27
38227;BME280;24026;49.446;8.576;2023-04-01T05:14:06;98981.00;;;14.70;51.48
38227;BME280;24026;49.446;8.576;2023-04-01T05:16:26;98974.81;;;14.70;51.75
38227;BME280;24026;49.446;8.576;2023-04-01T05:18:47;98977.50;;;14.70;51.38
38227;BME280;24026;49.446;8.576;2023-04-01T05:21:09;98977.69;;;14.73;51.39
38227;BME280;24026;49.446;8.576;2023-04-01T05:23:31;98979.09;;;14.71;51.50
38227;BME280;24026;49.446;8.576;2023-04-01T05:25:52;98973.75;;;14.71;51.48
38227;BME280;24026;49.446;8.576;2023-04-01T05:28:13;98973.44;;;14.72;51.47
38227;BME280;24026;49.446;8.576;2023-04-01T05:30:33;98968.09;;;14.72;51.42
38227;BME280;24026;49.446;8.576;2023-04-01T05:32:54;98971.06;;;14.71;51.54
38227;BME280;24026;49.446;8.576;2023-04-01T05:35:14;98968.09;;;14.72;51.34
38227;BME280;24026;49.446;8.576;2023-04-01T05:37:35;98969.47;;;14.70;51.52
38227;BME280;24026;49.446;8.576;2023-04-01T05:39:55;98964.94;;;14.70;51.57
38227;BME280;24026;49.446;8.576;2023-04-01T05:42:16;98967.41;;;14.67;51.56
38227;BME280;24026;49.446;8.576;2023-04-01T05:44:36;98970.28;;;14.70;51.58
38227;BME280;24026;49.446;8.576;2023-04-01T05:46:57;98965.25;;;14.69;51.47
38227;BME280;24026;49.446;8.576;2023-04-01T05:49:17;98968.41;;;14.71;51.42
38227;BME280;24026;49.446;8.576;2023-04-01T05:51:37;98962.56;;;14.69;51.54
38227;BME280;24026;49.446;8.576;2023-04-01T05:53:58;98960.19;;;14.67;51.63
38227;BME280;24026;49.446;8.576;2023-04-01T05:56:18;98950.75;;;14.70;51.55
38227;BME280;24026;49.446;8.576;2023-04-01T05:58:39;98963.84;;;14.71;51.71
38227;BME280;24026;49.446;8.576;2023-04-01T06:01:01;98963.34;;;14.69;51.39
38227;BME280;24026;49.446;8.576;2023-04-01T06:03:22;98965.66;;;14.62;51.80
38227;BME280;24026;49.446;8.576;2023-04-01T06:05:44;98960.19;;;14.67;51.47
38227;BME280;24026;49.446;8.576;2023-04-01T06:08:10;98953.75;;;14.68;51.65
38227;BME280;24026;49.446;8.576;2023-04-01T06:10:43;98959.38;;;14.67;51.64
38227;BME280;24026;49.446;8.576;2023-04-01T06:13:38;98960.00;;;14.63;51.82
38227;BME280;24026;49.446;8.576;2023-04-01T06:19:03;98952.09;;;14.58;51.84
38227;BME280;24026;49.446;8.576;2023-04-01T06:24:23;98957.63;;;14.62;51.84
38227;BME280;24026;49.446;8.576;2023-04-01T06:32:38;98951.28;;;14.58;51.86
38227;BME280;24026;49.446;8.576;2023-04-01T06:52:54;98949.03;;;14.65;51.74
38227;BME280;24026;49.446;8.576;2023-04-01T06:55:38;98946.66;;;14.63;51.64
38227;BME280;24026;49.446;8.576;2023-04-01T06:58:04;98943.47;;;14.61;51.80
38227;BME280;24026;49.446;8.576;2023-04-01T07:00:37;98951.00;;;14.59;51.82
38227;BME280;24026;49.446;8.576;2023-04-01T07:06:08;98951.47;;;14.61;51.74
38227;BME280;24026;49.446;8.576;2023-04-01T07:08:30;98947.72;;;14.62;51.67
38227;BME280;24026;49.446;8.576;2023-04-01T07:13:41;98963.59;;;14.59;51.77
38227;BME280;24026;49.446;8.576;2023-04-01T07:18:38;98965.66;;;14.62;51.75
38227;BME280;24026;49.446;8.576;2023-04-01T07:21:02;98965.16;;;14.60;51.87
38227;BME280;24026;49.446;8.576;2023-04-01T07:23:26;98963.78;;;14.62;51.78
38227;BME280;24026;49.446;8.576;2023-04-01T07:25:53;98964.56;;;14.63;51.79
38227;BME280;24026;49.446;8.576;2023-04-01T07:28:16;98958.41;;;14.62;51.72
38227;BME280;24026;49.446;8.576;2023-04-01T07:31:07;98968.63;;;14.60;51.81
38227;BME280;24026;49.446;8.576;2023-04-01T07:33:44;98971.59;;;14.59;51.74
38227;BME280;24026;49.446;8.576;2023-04-01T07:36:13;98965.97;;;14.60;51.99
38227;BME280;24026;49.446;8.576;2023-04-01T07:38:40;98968.34;;;14.62;51.80
38227;BME280;24026;49.446;8.576;2023-04-01T07:49:03;98969.31;;;14.66;51.95
38227;BME280;24026;49.446;8.576;2023-04-01T07:53:53;98967.41;;;14.67;51.95
38227;BME280;24026;49.446;8.576;2023-04-01T07:56:31;98971.19;;;14.66;51.92
38227;BME280;24026;49.446;8.576;2023-04-01T07:59:11;98970.72;;;14.63;52.01
38227;BME280;24026;49.446;8.576;2023-04-01T08:01:55;98980.13;;;14.61;52.16
38227;BME280;24026;49.446;8.576;2023-04-01T08:07:20;98974.16;;;14.64;52.25
38227;BME280;24026;49.446;8.576;2023-04-01T08:14:58;98969.59;;;14.64;52.51
38227;BME280;24026;49.446;8.576;2023-04-01T08:23:00;98975.75;;;14.65;52.30
38227;BME280;24026;49.446;8.576;2023-04-01T08:25:26;98980.00;;;14.66;52.53
38227;BME280;24026;49.446;8.576;2023-04-01T08:27:55;98983.44;;;14.67;52.40
38227;BME280;24026;49.446;8.576;2023-04-01T08:32:39;98995.06;;;14.62;52.27
38227;BME280;24026;49.446;8.576;2023-04-01T08:35:26;98988.63;;;14.63;52.77
38227;BME280;24026;49.446;8.576;2023-04-01T08:37:50;98989.91;;;14.66;52.47
38227;BME280;24026;49.446;8.576;2023-04-01T08:43:07;98990.50;;;14.62;52.79
38227;BME280;24026;49.446;8.576;2023-04-01T08:56:53;98992.19;;;14.58;53.08
38227;BME280;24026;49.446;8.576;2023-04-01T09:10:23;99011.41;;;14.60;53.17
38227;BME280;24026;49.446;8.576;2023-04-01T09:15:30;99002.28;;;14.61;53.29
38227;BME280;24026;49.446;8.576;2023-04-01T09:26:07;99012.97;;;14.61;53.53
38227;BME280;24026;49.446;8.576;2023-04-01T09:34:30;99007.34;;;14.63;53.75
38227;BME280;24026;49.446;8.576;2023-04-01T09:43:26;99014.38;;;14.59;53.81
38227;BME280;24026;49.446;8.576;2023-04-01T09:54:04;99009.53;;;14.61;54.04
38227;BME280;24026;49.446;8.576;2023-04-01T10:25:34;99033.59;;;14.61;54.54
38227;BME280;24026;49.446;8.576;2023-04-01T10:30:57;99028.53;;;14.59;54.65
38227;BME280;24026;49.446;8.576;2023-04-01T10:33:48;99032.81;;;14.60;54.69
38227;BME280;24026;49.446;8.576;2023-04-01T10:36:41;99027.16;;;14.62;54.62
38227;BME280;24026;49.446;8.576;2023-04-01T10:41:48;99033.19;;;14.68;54.57
38227;BME280;24026;49.446;8.576;2023-04-01T10:47:37;99028.13;;;14.66;54.75
38227;BME280;24026;49.446;8.576;2023-04-01T11:14:38;99035.84;;;14.68;55.17
38227;BME280;24026;49.446;8.576;2023-04-01T11:20:28;99044.66;;;14.68;55.30
38227;BME280;24026;49.446;8.576;2023-04-01T11:46:14;99050.31;;;14.67;56.31
38227;BME280;24026;49.446;8.576;2023-04-01T11:49:00;99051.41;;;14.66;56.24
38227;BME280;24026;49.446;8.576;2023-04-01T11:54:19;99056.16;;;14.69;56.48
38227;BME280;24026;49.446;8.576;2023-04-01T12:02:08;99067.53;;;14.74;56.43
38227;BME280;24026;49.446;8.576;2023-04-01T12:07:10;99070.00;;;14.71;56.71
38227;BME280;24026;49.446;8.576;2023-04-01T12:19:56;99074.78;;;14.74;56.79
38227;BME280;24026;49.446;8.576;2023-04-01T12:38:31;99083.56;;;14.74;56.69
38227;BME280;24026;49.446;8.576;2023-04-01T12:51:08;99082.19;;;14.77;56.71
38227;BME280;24026;49.446;8.576;2023-04-01T12:53:53;99080.91;;;14.74;56.84
38227;BME280;24026;49.446;8.576;2023-04-01T12:56:53;99083.88;;;14.73;56.90
38227;BME280;24026;49.446;8.576;2023-04-01T13:07:01;99095.88;;;14.75;56.95
38227;BME280;24026;49.446;8.576;2023-04-01T13:09:45;99103.59;;;14.77;57.04
38227;BME280;24026;49.446;8.576;2023-04-01T13:12:19;99095.06;;;14.75;56.75
38227;BME280;24026;49.446;8.576;2023-04-01T13:22:51;99106.88;;;14.74;57.01
38227;BME280;24026;49.446;8.576;2023-04-01T13:25:24;99106.88;;;14.74;56.96
38227;BME280;24026;49.446;8.576;2023-04-01T13:27:52;99111.63;;;14.77;56.98
38227;BME280;24026;49.446;8.576;2023-04-01T13:32:54;99119.81;;;14.80;56.81
38227;BME280;24026;49.446;8.576;2023-04-01T13:43:14;99118.22;;;14.79;57.01
38227;BME280;24026;49.446;8.576;2023-04-01T13:45:42;99125.66;;;14.82;56.83
38227;BME280;24026;49.446;8.576;2023-04-01T13:48:38;99125.66;;;14.82;56.81
38227;BME280;24026;49.446;8.576;2023-04-01T13:51:08;99124.06;;;14.81;56.95
38227;BME280;24026;49.446;8.576;2023-04-01T13:58:50;99136.06;;;14.84;56.88
38227;BME280;24026;49.446;8.576;2023-04-01T14:01:23;99133.38;;;14.84;56.77
38227;BME280;24026;49.446;8.576;2023-04-01T14:06:37;99133.38;;;14.84;56.62
38227;BME280;24026;49.446;8.576;2023-04-01T14:09:43;99132.59;;;14.84;56.71
38227;BME280;24026;49.446;8.576;2023-04-01T14:17:57;99145.16;;;14.83;56.55
38227;BME280;24026;49.446;8.576;2023-04-01T14:26:22;99142.19;;;14.85;56.44
38227;BME280;24026;49.446;8.576;2023-04-01T14:29:06;99147.84;;;14.83;56.38
38227;BME280;24026;49.446;8.576;2023-04-01T14:31:53;99148.44;;;14.80;56.44
38227;BME280;24026;49.446;8.576;2023-04-01T14:34:48;99159.34;;;14.84;56.26
38227;BME280;24026;49.446;8.576;2023-04-01T14:45:07;99165.19;;;14.86;55.99
38227;BME280;24026;49.446;8.576;2023-04-01T14:50:23;99171.91;;;14.83;55.91
38227;BME280;24026;49.446;8.576;2023-04-01T14:52:57;99170.84;;;14.84;55.91
38227;BME280;24026;49.446;8.576;2023-04-01T14:55:28;99171.44;;;14.81;56.07
38227;BME280;24026;49.446;8.576;2023-04-01T14:58:13;99171.72;;;14.79;56.02
38227;BME280;24026;49.446;8.576;2023-04-01T15:03:32;99177.84;;;14.80;55.98
38227;BME280;24026;49.446;8.576;2023-04-01T15:08:33;99189.19;;;14.77;55.89
38227;BME280;24026;49.446;8.576;2023-04-01T15:19:23;99193.13;;;14.79;55.78
38227;BME280;24026;49.446;8.576;2023-04-01T15:27:25;99196.09;;;14.78;55.73
38227;BME280;24026;49.446;8.576;2023-04-01T15:30:04;99191.22;;;14.80;55.64
38227;BME280;24026;49.446;8.576;2023-04-01T15:37:45;99204.59;;;14.80;55.60
38227;BME280;24026;49.446;8.576;2023-04-01T15:40:22;99202.25;;;14.78;55.54
38227;BME280;24026;49.446;8.576;2023-04-01T15:42:55;99203.63;;;14.76;55.70
38227;BME280;24026;49.446;8.576;2023-04-01T15:47:59;99202.84;;;14.75;55.53
38227;BME280;24026;49.446;8.576;2023-04-01T15:53:24;99212.25;;;14.73;55.56
38227;BME280;24026;49.446;8.576;2023-04-01T15:58:20;99218.06;;;14.75;55.47
38227;BME280;24026;49.446;8.576;2023-04-01T16:14:38;99227.41;;;14.77;55.37
38227;BME280;24026;49.446;8.576;2023-04-01T16:23:02;99229.59;;;14.75;55.44
38227;BME280;24026;49.446;8.576;2023-04-01T16:25:37;99237.09;;;14.73;55.37
38227;BME280;24026;49.446;8.576;2023-04-01T16:30:48;99242.66;;;14.77;55.30
38227;BME280;24026;49.446;8.576;2023-04-01T16:33:20;99236.50;;;14.76;55.33
38227;BME280;24026;49.446;8.576;2023-04-01T16:38:43;99248.00;;;14.77;55.22
38227;BME280;24026;49.446;8.576;2023-04-01T16:41:38;99254.75;;;14.74;55.28
38227;BME280;24026;49.446;8.576;2023-04-01T16:44:23;99257.13;;;14.76;55.07
38227;BME280;24026;49.446;8.576;2023-04-01T16:46:46;99255.75;;;14.78;55.03
38227;BME280;24026;49.446;8.576;2023-04-01T16:51:40;99251.78;;;14.76;55.04
38227;BME280;24026;49.446;8.576;2023-04-01T16:54:25;99258.72;;;14.77;54.88
38227;BME280;24026;49.446;8.576;2023-04-01T16:59:22;99270.28;;;14.72;54.89
38227;BME280;24026;49.446;8.576;2023-04-01T17:09:59;99279.41;;;14.71;54.89
38227;BME280;24026;49.446;8.576;2023-04-01T17:12:29;99286.03;;;14.74;54.60
38227;BME280;24026;49.446;8.576;2023-04-01T17:15:04;99293.25;;;14.73;54.57
38227;BME280;24026;49.446;8.576;2023-04-01T17:22:49;99301.06;;;14.70;54.15
38227;BME280;24026;49.446;8.576;2023-04-01T17:25:28;99303.75;;;14.70;54.17
38227;BME280;24026;49.446;8.576;2023-04-01T17:33:29;99310.22;;;14.69;54.05
38227;BME280;24026;49.446;8.576;2023-04-01T17:35:59;99314.25;;;14.66;54.08
38227;BME280;24026;49.446;8.576;2023-04-01T17:46:31;99321.97;;;14.68;53.82
38227;BME280;24026;49.446;8.576;2023-04-01T17:49:05;99324.66;;;14.68;53.85
38227;BME280;24026;49.446;8.576;2023-04-01T17:52:00;99326.53;;;14.67;53.81
38227;BME280;24026;49.446;8.576;2023-04-01T17:57:39;99327.63;;;14.66;53.78
38227;BME280;24026;49.446;8.576;2023-04-01T18:00:24;99332.56;;;14.59;53.90
38227;BME280;24026;49.446;8.576;2023-04-01T18:11:12;99361.88;;;14.64;53.79
38227;BME280;24026;49.446;8.576;2023-04-01T18:14:20;99356.09;;;14.57;53.92
38227;BME280;24026;49.446;8.576;2023-04-01T18:19:47;99361.97;;;14.59;54.11
38227;BME280;24026;49.446;8.576;2023-04-01T18:27:46;99386.09;;;14.54;54.28
38227;BME280;24026;49.446;8.576;2023-04-01T18:30:15;99382.84;;;14.57;54.11
38227;BME280;24026;49.446;8.576;2023-04-01T18:32:44;99385.75;;;14.60;53.96
38227;BME280;24026;49.446;8.576;2023-04-01T18:38:12;99398.59;;;14.58;54.19
38227;BME280;24026;49.446;8.576;2023-04-01T18:51:48;99414.69;;;14.53;54.42
38227;BME280;24026;49.446;8.576;2023-04-01T18:54:24;99420.66;;;14.50;54.51
38227;BME280;24026;49.446;8.576;2023-04-01T18:56:47;99424.81;;;14.56;54.42
38227;BME280;24026;49.446;8.576;2023-04-01T18:59:32;99423.81;;;14.52;54.58
38227;BME280;24026;49.446;8.576;2023-04-01T19:02:29;99430.31;;;14.46;54.60
38227;BME280;24026;49.446;8.576;2023-04-01T19:05:34;99434.31;;;14.49;54.80
38227;BME280;24026;49.446;8.576;2023-04-01T19:16:04;99441.00;;;14.46;54.78
38227;BME280;24026;49.446;8.576;2023-04-01T19:21:39;99448.25;;;14.45;54.72
38227;BME280;24026;49.446;8.576;2023-04-01T19:24:25;99442.91;;;14.45;54.69
38227;BME280;24026;49.446;8.576;2023-04-01T19:32:52;99446.72;;;14.39;55.05
38227;BME280;24026;49.446;8.576;2023-04-01T19:37:51;99442.41;;;14.43;54.91
38227;BME280;24026;49.446;8.576;2023-04-01T19:43:08;99447.75;;;14.43;55.03
38227;BME280;24026;49.446;8.576;2023-04-01T19:54:29;99461.97;;;14.39;55.19
38227;BME280;24026;49.446;8.576;2023-04-01T20:00:04;99465.72;;;14.38;55.21
38227;BME280;24026;49.446;8.576;2023-04-01T20:02:35;99468.69;;;14.36;55.27
38227;BME280;24026;49.446;8.576;2023-04-01T20:05:14;99481.75;;;14.38;55.45
38227;BME280;24026;49.446;8.576;2023-04-01T20:07:44;99476.69;;;14.36;55.02
38227;BME280;24026;49.446;8.576;2023-04-01T20:10:22;99479.59;;;14.40;55.27
38227;BME280;24026;49.446;8.576;2023-04-01T20:13:13;99476.97;;;14.35;55.31
38227;BME280;24026;49.446;8.576;2023-04-01T20:15:40;99482.03;;;14.36;55.26
38227;BME280;24026;49.446;8.576;2023-04-01T20:18:05;99485.53;;;14.37;55.29
38227;BME280;24026;49.446;8.576;2023-04-01T20:20:34;99490.06;;;14.36;55.38
38227;BME280;24026;49.446;8.576;2023-04-01T20:25:41;99499.69;;;14.37;55.23
38227;BME280;24026;49.446;8.576;2023-04-01T20:46:15;99518.97;;;14.34;55.41
38227;BME280;24026;49.446;8.576;2023-04-01T20:51:39;99511.44;;;14.36;55.39
38227;BME280;24026;49.446;8.576;2023-04-01T20:54:30;99519.03;;;14.29;55.52
38227;BME280;24026;49.446;8.576;2023-04-01T20:57:07;99524.31;;;14.34;55.50
38227;BME280;24026;49.446;8.576;2023-04-01T20:59:42;99524.31;;;14.34;55.40
38227;BME280;24026;49.446;8.576;2023-04-01T21:02:52;99520.56;;;14.35;55.26
38227;BME280;24026;49.446;8.576;2023-04-01T21:18:10;99538.81;;;14.28;55.16
38227;BME280;24026;49.446;8.576;2023-04-01T21:20:48;99541.75;;;14.26;55.61
38227;BME280;24026;49.446;8.576;2023-04-01T21:23:38;99541.19;;;14.30;55.46
38227;BME280;24026;49.446;8.576;2023-04-01T21:26:29;99549.00;;;14.26;55.52
38227;BME280;24026;49.446;8.576;2023-04-01T21:37:17;99565.81;;;14.26;55.62
38227;BME280;24026;49.446;8.576;2023-04-01T21:42:13;99574.16;;;14.25;55.44
38227;BME280;24026;49.446;8.576;2023-04-01T21:44:46;99578.63;;;14.30;55.42
38227;BME280;24026;49.446;8.576;2023-04-01T21:50:00;99575.44;;;14.27;55.47
38227;BME280;24026;49.446;8.576;2023-04-01T21:52:48;99577.03;;;14.29;55.51
38227;BME280;24026;49.446;8.576;2023-04-01T21:56:07;99576.28;;;14.23;55.53
38227;BME280;24026;49.446;8.576;2023-04-01T22:00:41;99587.72;;;14.29;55.46
38227;BME280;24026;49.446;8.576;2023-04-01T22:03:32;99591.25;;;14.24;55.64
38227;BME280;24026;49.446;8.576;2023-04-01T22:06:38;99587.78;;;14.23;55.54
38227;BME280;24026;49.446;8.576;2023-04-01T22:11:29;99591.25;;;14.24;55.61
38227;BME280;24026;49.446;8.576;2023-04-01T22:19:10;99601.09;;;14.29;55.48